createdAt,value
2023-02-13T00:00:17.848Z,53.88
2023-02-13T00:02:44.990Z,57.33
2023-02-13T00:05:11.850Z,47.22
2023-02-13T00:07:38.508Z,49.53
2023-02-13T00:10:05.714Z,52.00
2023-02-13T00:12:32.268Z,48.40
2023-02-13T00:14:59.262Z,49.88
2023-02-13T00:17:26.254Z,48.40
2023-02-13T00:19:52.850Z,48.28
2023-02-13T00:22:19.430Z,46.38
2023-02-13T00:24:46.297Z,50.75
2023-02-13T00:27:12.996Z,50.45
2023-02-13T00:29:39.683Z,53.38
2023-02-13T00:32:06.590Z,53.42
2023-02-13T00:34:33.372Z,47.58
2023-02-13T00:37:00.093Z,48.10
2023-02-13T00:39:26.744Z,53.85
2023-02-13T00:41:53.274Z,52.28
2023-02-13T00:44:20.027Z,51.45
2023-02-13T00:46:46.639Z,57.17
2023-02-13T00:49:13.239Z,58.35
2023-02-13T00:51:39.850Z,57.55
2023-02-13T00:54:06.430Z,59.67
2023-02-13T00:56:33.305Z,60.88
2023-02-13T00:58:59.888Z,57.63
2023-02-13T01:01:26.487Z,64.63
2023-02-13T01:03:53.173Z,63.88
2023-02-13T01:06:19.836Z,59.65
2023-02-13T01:08:46.394Z,62.03
2023-02-13T01:11:13.166Z,60.95
2023-02-13T01:13:39.760Z,68.20
2023-02-13T01:16:06.858Z,69.47
2023-02-13T01:18:33.441Z,66.72
2023-02-13T01:21:06.660Z,60.97
2023-02-13T01:23:35.733Z,64.97
2023-02-13T01:26:07.645Z,68.97
2023-02-13T01:31:01.727Z,69.65
2023-02-13T01:33:29.734Z,69.93
2023-02-13T01:35:56.536Z,76.03
2023-02-13T01:38:23.173Z,68.07
2023-02-13T01:40:52.714Z,66.07
2023-02-13T01:43:23.480Z,70.10
2023-02-13T01:45:55.198Z,72.25
2023-02-13T01:48:26.286Z,73.85
2023-02-13T01:51:01.944Z,71.53
2023-02-13T01:53:43.897Z,69.90
2023-02-13T01:56:17.848Z,75.65
2023-02-13T01:58:47.272Z,79.55
2023-02-13T02:01:13.857Z,72.03
2023-02-13T02:03:45.598Z,68.88
2023-02-13T02:06:18.883Z,79.78
2023-02-13T02:08:49.132Z,76.43
2023-02-13T02:11:22.894Z,73.65
2023-02-13T02:13:50.449Z,83.88
2023-02-13T02:16:17.152Z,78.68
2023-02-13T02:18:46.373Z,87.25
2023-02-13T02:21:51.925Z,77.50
2023-02-13T02:24:40.079Z,85.40
2023-02-13T02:27:41.930Z,102.32
2023-02-13T02:30:26.735Z,82.63
2023-02-13T02:33:16.867Z,87.45
2023-02-13T02:35:48.384Z,86.15
2023-02-13T02:38:51.771Z,87.47
2023-02-13T02:41:42.837Z,89.60
2023-02-13T02:44:51.324Z,90.28
2023-02-13T02:47:53.573Z,95.57
2023-02-13T02:50:43.142Z,95.93
2023-02-13T02:53:35.242Z,93.20
2023-02-13T02:56:09.812Z,100.18
2023-02-13T02:59:14.504Z,84.63
2023-02-13T03:02:00.983Z,86.35
2023-02-13T03:04:58.374Z,86.80
2023-02-13T03:07:25.120Z,89.75
2023-02-13T03:10:14.344Z,91.45
2023-02-13T03:13:14.186Z,92.05
2023-02-13T03:16:02.292Z,83.65
2023-02-13T03:18:55.231Z,87.00
2023-02-13T03:22:08.643Z,90.43
2023-02-13T03:24:50.560Z,90.63
2023-02-13T03:28:05.256Z,88.55
2023-02-13T03:30:53.121Z,86.93
2023-02-13T03:33:28.771Z,87.97
2023-02-13T03:36:26.058Z,85.35
2023-02-13T03:38:55.277Z,83.72
2023-02-13T03:41:55.879Z,90.47
2023-02-13T03:44:28.166Z,88.20
2023-02-13T03:46:59.324Z,89.13
2023-02-13T03:49:53.591Z,91.75
2023-02-13T03:52:44.446Z,85.78
2023-02-13T03:55:42.657Z,89.47
2023-02-13T03:58:42.562Z,86.97
2023-02-13T04:01:11.953Z,87.50
2023-02-13T04:03:54.414Z,73.97
2023-02-13T04:06:31.560Z,79.15
2023-02-13T04:08:58.460Z,81.45
2023-02-13T04:11:55.599Z,85.10
2023-02-13T04:14:28.991Z,81.22
2023-02-13T04:17:05.636Z,81.75
2023-02-13T04:19:33.122Z,92.10
2023-02-13T04:22:01.709Z,82.90
2023-02-13T04:24:29.199Z,84.55
2023-02-13T04:26:56.298Z,81.25
2023-02-13T04:29:23.984Z,85.25
2023-02-13T04:31:50.793Z,83.90
2023-02-13T04:34:18.126Z,85.57
2023-02-13T04:36:44.726Z,84.28
2023-02-13T04:39:11.798Z,86.22
2023-02-13T04:41:38.354Z,77.05
2023-02-13T04:44:05.088Z,78.60
2023-02-13T04:46:31.810Z,74.28
2023-02-13T04:48:58.437Z,77.68
2023-02-13T04:51:24.993Z,72.10
2023-02-13T04:53:51.521Z,78.85
2023-02-13T04:56:19.825Z,67.63
2023-02-13T04:58:46.640Z,70.55
2023-02-13T05:01:14.489Z,74.50
2023-02-13T05:03:41.499Z,66.18
2023-02-13T05:06:08.252Z,72.55
2023-02-13T05:08:35.484Z,71.22
2023-02-13T05:11:02.304Z,72.35
2023-02-13T05:13:28.868Z,68.57
2023-02-13T05:15:55.501Z,72.63
2023-02-13T05:18:22.139Z,73.32
2023-02-13T05:21:08.650Z,72.30
2023-02-13T05:23:35.415Z,67.05
2023-02-13T05:26:02.302Z,64.47
2023-02-13T05:28:47.292Z,64.47
2023-02-13T05:31:14.091Z,68.75
2023-02-13T05:33:40.731Z,68.03
2023-02-13T05:36:08.019Z,67.20
2023-02-13T05:38:35.374Z,64.95
2023-02-13T05:41:02.538Z,70.57
2023-02-13T05:43:30.231Z,65.35
2023-02-13T05:46:07.647Z,65.13
2023-02-13T05:48:35.132Z,65.47
2023-02-13T05:51:01.947Z,69.20
2023-02-13T05:53:29.939Z,67.88
2023-02-13T05:55:56.770Z,61.28
2023-02-13T05:58:23.649Z,42.08
2023-02-13T06:00:50.419Z,37.70
2023-02-13T06:03:17.140Z,37.00
2023-02-13T06:05:43.713Z,28.45
2023-02-13T06:08:10.308Z,29.30
2023-02-13T06:10:37.062Z,29.27
2023-02-13T06:13:03.675Z,31.10
2023-02-13T06:15:30.260Z,35.05
2023-02-13T06:17:56.824Z,34.20
2023-02-13T06:20:23.382Z,34.83
2023-02-13T06:22:51.226Z,38.60
2023-02-13T06:25:18.324Z,40.72
2023-02-13T06:27:44.994Z,38.85
2023-02-13T06:30:12.423Z,43.38
2023-02-13T06:32:39.027Z,47.22
2023-02-13T06:35:06.338Z,41.20
2023-02-13T06:37:33.327Z,44.92
2023-02-13T06:39:59.868Z,42.65
2023-02-13T06:42:26.457Z,47.80
2023-02-13T06:44:53.044Z,46.55
2023-02-13T06:47:19.820Z,42.17
2023-02-13T06:49:46.374Z,54.25
2023-02-13T06:52:12.981Z,46.42
2023-02-13T06:54:47.240Z,52.75
2023-02-13T06:57:14.547Z,49.67
2023-02-13T06:59:41.090Z,51.30
2023-02-13T07:02:13.147Z,48.53
2023-02-13T07:04:40.226Z,50.17
2023-02-13T07:07:06.884Z,51.05
2023-02-13T07:09:33.492Z,55.60
2023-02-13T07:12:03.923Z,54.10
2023-02-13T07:14:30.513Z,51.35
2023-02-13T07:16:57.867Z,56.25
2023-02-13T07:19:24.457Z,58.90
2023-02-13T07:21:51.154Z,54.33
2023-02-13T07:24:17.733Z,66.70
2023-02-13T07:26:44.312Z,60.22
2023-02-13T07:29:12.252Z,57.15
2023-02-13T07:31:39.945Z,55.45
2023-02-13T07:34:07.316Z,53.63
2023-02-13T07:36:34.001Z,63.08
2023-02-13T07:39:00.557Z,61.78
2023-02-13T07:41:27.172Z,51.80
2023-02-13T07:43:54.732Z,59.15
2023-02-13T07:46:21.461Z,55.17
2023-02-13T07:48:48.161Z,54.38
2023-02-13T07:51:15.023Z,65.28
2023-02-13T07:53:41.561Z,60.40
2023-02-13T07:56:09.781Z,56.20
2023-02-13T07:58:37.682Z,63.15
2023-02-13T08:01:09.738Z,57.53
2023-02-13T08:03:36.781Z,59.92
2023-02-13T08:06:04.414Z,54.03
2023-02-13T08:08:31.246Z,54.75
2023-02-13T08:11:17.095Z,62.33
2023-02-13T08:13:44.285Z,55.28
2023-02-13T08:16:10.869Z,48.25
2023-02-13T08:18:37.447Z,55.38
2023-02-13T08:21:04.717Z,51.78
2023-02-13T08:23:31.388Z,53.45
2023-02-13T08:26:02.101Z,48.13
2023-02-13T08:28:31.945Z,46.15
2023-02-13T08:30:58.630Z,48.60
2023-02-13T08:33:25.347Z,58.15
2023-02-13T08:35:51.885Z,57.42
2023-02-13T08:38:18.553Z,44.45
2023-02-13T08:40:45.166Z,47.63
2023-02-13T08:43:11.712Z,41.85
2023-02-13T08:45:38.465Z,42.00
2023-02-13T08:48:05.176Z,38.95
2023-02-13T08:50:31.936Z,39.60
2023-02-13T08:52:59.228Z,39.33
2023-02-13T08:55:27.094Z,39.20
2023-02-13T08:57:53.705Z,37.15
2023-02-13T09:00:20.808Z,37.17
2023-02-13T09:02:47.420Z,36.10
2023-02-13T09:05:14.100Z,35.72
2023-02-13T09:07:40.638Z,34.17
2023-02-13T09:10:07.830Z,36.13
2023-02-13T09:12:34.410Z,34.75
2023-02-13T09:15:00.963Z,32.25
2023-02-13T09:17:27.552Z,33.35
2023-02-13T09:19:54.118Z,31.92
2023-02-13T09:22:20.661Z,31.50
2023-02-13T09:24:47.223Z,33.53
2023-02-13T09:27:13.864Z,34.10
2023-02-13T09:29:40.439Z,30.88
2023-02-13T09:32:07.197Z,33.08
2023-02-13T09:34:33.891Z,33.78
2023-02-13T09:37:00.528Z,32.50
2023-02-13T09:39:27.080Z,32.35
2023-02-13T09:41:54.780Z,31.83
2023-02-13T09:44:43.382Z,34.33
2023-02-13T09:47:36.476Z,30.70
2023-02-13T09:50:15.025Z,33.03
2023-02-13T09:52:44.579Z,31.63
2023-02-13T09:55:25.228Z,33.83
2023-02-13T09:58:20.893Z,30.90
2023-02-13T10:00:56.823Z,30.90
2023-02-13T10:03:36.421Z,34.13
2023-02-13T10:06:26.118Z,35.47
2023-02-13T10:09:02.888Z,35.45
2023-02-13T10:11:40.846Z,38.15
2023-02-13T10:14:13.561Z,31.75
2023-02-13T10:16:53.668Z,37.13
2023-02-13T10:19:36.436Z,31.10
2023-02-13T10:22:16.804Z,35.72
2023-02-13T10:24:52.384Z,33.08
2023-02-13T10:27:18.877Z,32.17
2023-02-13T10:30:06.883Z,31.25
2023-02-13T10:33:21.055Z,31.92
2023-02-13T10:36:07.012Z,29.80
2023-02-13T10:38:39.566Z,27.70
2023-02-13T10:41:15.477Z,28.58
2023-02-13T10:44:25.351Z,30.98
2023-02-13T10:47:10.752Z,31.02
2023-02-13T10:49:55.355Z,48.83
2023-02-13T10:53:00.138Z,220.23
2023-02-13T10:55:32.723Z,58.85
2023-02-13T10:58:14.290Z,48.10
2023-02-13T11:00:44.486Z,50.55
2023-02-13T11:03:30.315Z,34.42
2023-02-13T11:05:59.914Z,54.65
2023-02-13T11:08:40.819Z,130.43
2023-02-13T11:11:34.494Z,55.13
2023-02-13T11:14:10.055Z,50.03
2023-02-13T11:16:57.444Z,69.95
2023-02-13T11:19:52.015Z,30.30
2023-02-13T11:22:30.504Z,37.75
2023-02-13T11:25:19.208Z,30.60
2023-02-13T11:27:47.879Z,31.35
2023-02-13T11:30:23.186Z,36.22
2023-02-13T11:33:02.421Z,38.10
2023-02-13T11:35:32.516Z,31.05
2023-02-13T11:38:15.725Z,27.35
2023-02-13T11:40:45.082Z,126.50
2023-02-13T11:43:29.195Z,66.22
2023-02-13T11:46:08.595Z,30.60
2023-02-13T11:48:35.760Z,43.05
2023-02-13T11:51:03.590Z,29.17
2023-02-13T11:53:36.464Z,26.33
2023-02-13T11:56:11.096Z,33.05
2023-02-13T11:58:38.584Z,36.08
2023-02-13T12:01:25.799Z,31.58
2023-02-13T12:04:05.261Z,30.85
2023-02-13T12:06:39.693Z,37.20
2023-02-13T12:09:15.371Z,33.75
2023-02-13T12:11:53.715Z,29.15
2023-02-13T12:14:23.015Z,28.90
2023-02-13T12:17:07.218Z,28.92
2023-02-13T12:19:41.987Z,26.48
2023-02-13T12:22:40.568Z,29.63
2023-02-13T12:25:45.433Z,24.48
2023-02-13T12:28:16.904Z,25.70
2023-02-13T12:30:52.683Z,33.03
2023-02-13T12:33:25.194Z,22.38
2023-02-13T12:36:25.265Z,24.13
2023-02-13T12:39:18.265Z,23.08
2023-02-13T12:42:12.350Z,23.20
2023-02-13T12:44:57.726Z,26.20
2023-02-13T12:47:29.217Z,22.52
2023-02-13T12:50:14.169Z,29.85
2023-02-13T12:52:52.068Z,24.40
2023-02-13T12:55:49.000Z,25.48
2023-02-13T12:58:33.832Z,24.27
2023-02-13T13:01:37.713Z,23.92
2023-02-13T13:04:36.601Z,24.13
2023-02-13T13:07:06.144Z,25.33
2023-02-13T13:09:56.037Z,23.10
2023-02-13T13:12:25.570Z,23.75
2023-02-13T13:15:23.218Z,26.83
2023-02-13T13:18:02.086Z,25.33
2023-02-13T13:21:10.034Z,26.67
2023-02-13T13:23:39.435Z,22.75
2023-02-13T13:26:26.268Z,26.02
2023-02-13T13:28:56.572Z,27.67
2023-02-13T13:31:26.335Z,29.23
2023-02-13T13:33:58.356Z,42.72
2023-02-13T13:36:46.217Z,27.83
2023-02-13T13:39:29.824Z,55.33
2023-02-13T13:42:01.053Z,18.80
2023-02-13T13:44:42.789Z,35.47
2023-02-13T13:47:39.338Z,33.63
2023-02-13T13:50:18.017Z,81.20
2023-02-13T13:53:05.859Z,43.78
2023-02-13T13:55:50.518Z,29.23
2023-02-13T13:58:31.308Z,23.27
2023-02-13T14:01:24.197Z,19.67
2023-02-13T14:03:52.103Z,16.40
2023-02-13T14:06:22.187Z,17.58
2023-02-13T14:08:49.366Z,18.50
2023-02-13T14:11:36.183Z,18.00
2023-02-13T14:14:27.870Z,15.90
2023-02-13T14:16:59.787Z,15.50
2023-02-13T14:22:19.010Z,18.75
2023-02-13T14:24:55.531Z,16.25
2023-02-13T14:27:34.213Z,19.27
2023-02-13T14:30:01.947Z,53.47
2023-02-13T14:32:31.438Z,56.70
2023-02-13T14:35:02.397Z,18.45
2023-02-13T14:37:47.937Z,16.48
2023-02-13T14:40:20.269Z,15.98
2023-02-13T14:42:53.755Z,17.65
2023-02-13T14:45:27.321Z,15.82
2023-02-13T14:47:57.206Z,15.43
2023-02-13T14:50:32.690Z,16.05
2023-02-13T14:53:03.937Z,18.90
2023-02-13T14:55:42.947Z,17.77
2023-02-13T14:58:20.548Z,23.45
2023-02-13T15:00:55.010Z,20.40
2023-02-13T15:03:54.544Z,22.42
2023-02-13T15:06:34.063Z,29.30
2023-02-13T15:09:04.698Z,16.17
2023-02-13T15:11:45.356Z,22.13
2023-02-13T15:14:19.097Z,16.80
2023-02-13T15:16:50.697Z,21.27
2023-02-13T15:19:20.182Z,22.15
2023-02-13T15:21:53.947Z,32.28
2023-02-13T15:24:25.034Z,22.33
2023-02-13T15:27:20.191Z,26.48
2023-02-13T15:30:12.551Z,27.52
2023-02-13T15:35:31.111Z,26.00
2023-02-13T15:37:59.124Z,22.08
2023-02-13T15:40:37.194Z,27.27
2023-02-13T15:43:04.037Z,21.63
2023-02-13T15:45:30.869Z,18.20
2023-02-13T15:47:58.099Z,23.13
2023-02-13T15:50:24.615Z,21.75
2023-02-13T15:52:51.751Z,23.00
2023-02-13T15:55:21.459Z,22.90
2023-02-13T15:57:48.795Z,34.40
2023-02-13T16:00:27.507Z,25.60
2023-02-13T16:02:55.992Z,23.10
2023-02-13T16:05:38.893Z,29.63
2023-02-13T16:08:27.462Z,26.73
2023-02-13T16:11:29.799Z,41.53
2023-02-13T16:13:56.329Z,30.00
2023-02-13T16:16:24.109Z,31.13
2023-02-13T16:18:52.128Z,31.63
2023-02-13T16:21:29.196Z,32.22
2023-02-13T16:24:02.477Z,30.15
2023-02-13T16:26:29.281Z,34.45
2023-02-13T16:28:55.918Z,30.60
2023-02-13T16:31:22.819Z,33.92
2023-02-13T16:33:49.620Z,29.20
2023-02-13T16:36:16.138Z,31.85
2023-02-13T16:38:48.028Z,34.70
2023-02-13T16:41:17.289Z,30.35
2023-02-13T16:44:04.138Z,31.90
2023-02-13T16:46:41.231Z,34.17
2023-02-13T16:49:10.668Z,34.28
2023-02-13T16:51:58.485Z,38.25
2023-02-13T16:54:38.028Z,35.33
2023-02-13T16:57:20.845Z,36.47
2023-02-13T16:59:47.356Z,36.25
2023-02-13T17:02:14.421Z,33.75
2023-02-13T17:04:50.269Z,33.70
2023-02-13T17:07:30.024Z,32.30
2023-02-13T17:10:20.650Z,37.95
2023-02-13T17:12:48.601Z,30.42
2023-02-13T17:15:18.454Z,33.13
2023-02-13T17:17:45.875Z,30.30
2023-02-13T17:20:17.973Z,29.67
2023-02-13T17:22:46.482Z,29.02
2023-02-13T17:25:29.510Z,28.95
2023-02-13T17:27:58.893Z,30.90
2023-02-13T17:30:29.152Z,31.58
2023-02-13T17:32:59.563Z,30.90
2023-02-13T17:35:26.407Z,30.35
2023-02-13T17:37:53.087Z,29.20
2023-02-13T17:40:21.974Z,31.00
2023-02-13T17:42:53.341Z,34.90
2023-02-13T17:45:22.907Z,28.98
2023-02-13T17:47:49.748Z,34.78
2023-02-13T17:50:17.503Z,30.83
2023-02-13T17:52:45.819Z,35.50
2023-02-13T17:55:26.969Z,34.05
2023-02-13T17:57:56.547Z,40.35
2023-02-13T18:00:28.014Z,37.20
2023-02-13T18:02:55.317Z,41.40
2023-02-13T18:05:22.465Z,38.38
2023-02-13T18:07:49.557Z,33.42
2023-02-13T18:10:37.254Z,34.90
2023-02-13T18:13:04.538Z,36.58
2023-02-13T18:15:36.246Z,38.97
2023-02-13T18:18:02.857Z,38.55
2023-02-13T18:20:29.872Z,38.05
2023-02-13T18:22:56.405Z,34.33
2023-02-13T18:25:23.724Z,36.65
2023-02-13T18:27:50.307Z,33.08
2023-02-13T18:30:19.721Z,44.15
2023-02-13T18:32:51.928Z,47.75
2023-02-13T18:35:18.997Z,47.78
2023-02-13T18:37:45.668Z,35.42
2023-02-13T18:40:14.995Z,38.63
2023-02-13T18:42:41.634Z,33.53
2023-02-13T18:45:08.720Z,42.17
2023-02-13T18:47:35.324Z,34.03
2023-02-13T18:50:01.928Z,31.65
2023-02-13T18:52:28.470Z,29.42
2023-02-13T18:54:55.614Z,31.70
2023-02-13T18:57:22.473Z,28.42
2023-02-13T18:59:49.045Z,30.27
2023-02-13T19:02:15.685Z,29.05
2023-02-13T19:04:42.458Z,28.30
2023-02-13T19:07:09.010Z,29.02
2023-02-13T19:09:40.045Z,29.15
2023-02-13T19:12:07.418Z,27.73
2023-02-13T19:14:34.041Z,32.78
2023-02-13T19:17:00.683Z,29.83
2023-02-13T19:19:27.297Z,33.10
2023-02-13T19:21:53.884Z,34.25
2023-02-13T19:24:20.455Z,34.92
2023-02-13T19:26:47.401Z,36.03
2023-02-13T19:29:13.979Z,33.65
2023-02-13T19:31:41.400Z,30.42
2023-02-13T19:34:08.194Z,30.35
2023-02-13T19:36:34.998Z,32.63
2023-02-13T19:39:04.086Z,32.95
2023-02-13T19:41:31.627Z,32.85
2023-02-13T19:43:58.658Z,38.53
2023-02-13T19:46:30.270Z,38.00
2023-02-13T19:48:57.065Z,39.15
2023-02-13T19:51:27.678Z,37.60
2023-02-13T19:54:12.876Z,38.85
2023-02-13T19:56:40.815Z,41.88
2023-02-13T19:59:10.539Z,44.28
2023-02-13T20:01:37.225Z,40.05
2023-02-13T20:04:03.759Z,39.75
2023-02-13T20:06:35.012Z,43.58
2023-02-13T20:09:04.787Z,45.67
2023-02-13T20:11:31.422Z,43.90
2023-02-13T20:14:03.962Z,42.90
2023-02-13T20:16:33.075Z,49.45
2023-02-13T20:19:07.030Z,41.67
2023-02-13T20:21:35.145Z,46.75
2023-02-13T20:24:03.134Z,53.97
2023-02-13T20:26:30.643Z,45.92
2023-02-13T20:28:59.957Z,44.97
2023-02-13T20:31:29.073Z,52.90
2023-02-13T20:33:56.299Z,45.40
2023-02-13T20:36:25.986Z,54.10
2023-02-13T20:38:55.131Z,53.85
2023-02-13T20:41:24.461Z,56.25
2023-02-13T20:43:52.195Z,60.55
2023-02-13T20:46:19.215Z,56.00
2023-02-13T20:48:48.015Z,52.28
2023-02-13T20:51:16.122Z,56.10
2023-02-13T20:53:43.901Z,59.92
2023-02-13T20:56:13.519Z,61.58
2023-02-13T20:58:41.668Z,62.75
2023-02-13T21:01:35.688Z,62.58
2023-02-13T21:04:02.443Z,58.35
2023-02-13T21:06:31.715Z,63.17
2023-02-13T21:08:58.924Z,68.50
2023-02-13T21:11:26.330Z,68.50
2023-02-13T21:13:52.870Z,64.50
2023-02-13T21:16:22.961Z,62.65
2023-02-13T21:18:52.373Z,63.17
2023-02-13T21:21:20.261Z,65.22
2023-02-13T21:23:47.539Z,60.65
2023-02-13T21:26:17.067Z,57.13
2023-02-13T21:28:48.480Z,58.50
2023-02-13T21:31:18.918Z,70.18
2023-02-13T21:33:46.056Z,62.92
2023-02-13T21:36:13.371Z,58.38
2023-02-13T21:38:40.950Z,68.30
2023-02-13T21:41:13.315Z,65.00
2023-02-13T21:43:42.068Z,68.57
2023-02-13T21:46:14.581Z,61.50
2023-02-13T21:48:42.011Z,64.05
2023-02-13T21:51:17.134Z,72.00
2023-02-13T21:53:44.970Z,69.18
2023-02-13T21:56:14.214Z,66.80
2023-02-13T21:58:42.424Z,65.28
2023-02-13T22:01:25.400Z,64.93
2023-02-13T22:04:00.141Z,66.90
2023-02-13T22:06:28.729Z,67.47
2023-02-13T22:09:03.904Z,74.75
2023-02-13T22:11:30.846Z,74.22
2023-02-13T22:14:01.697Z,65.22
2023-02-13T22:16:30.098Z,63.75
2023-02-13T22:18:57.149Z,64.72
2023-02-13T22:21:25.433Z,68.70
2023-02-13T22:23:53.143Z,78.60
2023-02-13T22:26:19.710Z,73.93
2023-02-13T22:28:47.280Z,69.40
2023-02-13T22:31:15.103Z,77.40
2023-02-13T22:33:42.986Z,80.03
2023-02-13T22:36:13.140Z,77.40
2023-02-13T22:38:41.100Z,80.03
2023-02-13T22:41:14.291Z,77.07
2023-02-13T22:43:41.816Z,66.90
2023-02-13T22:46:10.717Z,83.40
2023-02-13T22:48:38.998Z,77.35
2023-02-13T22:51:08.867Z,78.20
2023-02-13T22:53:36.617Z,76.85
2023-02-13T22:56:04.863Z,75.80
2023-02-13T22:58:31.664Z,87.85
2023-02-13T23:00:58.836Z,97.78
2023-02-13T23:03:25.828Z,102.25
2023-02-13T23:05:52.413Z,94.53
2023-02-13T23:08:19.377Z,88.82
2023-02-13T23:11:08.472Z,81.55
2023-02-13T23:13:35.438Z,80.00
2023-02-13T23:16:02.035Z,83.32
2023-02-13T23:18:28.717Z,88.90
2023-02-13T23:20:55.263Z,80.13
2023-02-13T23:23:22.380Z,86.70
2023-02-13T23:25:48.977Z,99.07
2023-02-13T23:28:15.617Z,105.63
2023-02-13T23:30:42.314Z,105.82
2023-02-13T23:33:08.975Z,90.57
2023-02-13T23:35:35.550Z,87.28
2023-02-13T23:38:02.129Z,94.65
2023-02-13T23:40:28.755Z,101.53
2023-02-13T23:42:55.276Z,95.13
2023-02-13T23:45:21.830Z,88.10
2023-02-13T23:47:48.391Z,87.72
2023-02-13T23:50:14.977Z,93.13
2023-02-13T23:52:41.529Z,92.28
2023-02-13T23:55:08.433Z,94.65
2023-02-13T23:57:35.631Z,105.93
